createdAt,value
2018-06-17T00:00:05.364Z,7.90
2018-06-17T00:02:32.743Z,6.33
2018-06-17T00:05:00.126Z,7.10
2018-06-17T00:07:27.499Z,6.37
2018-06-17T00:09:54.918Z,6.43
2018-06-17T00:12:22.287Z,6.90
2018-06-17T00:14:49.651Z,8.33
2018-06-17T00:17:17.152Z,7.13
2018-06-17T00:19:44.627Z,7.30
2018-06-17T00:22:11.974Z,7.33
2018-06-17T00:24:39.401Z,7.60
2018-06-17T00:27:06.731Z,9.43
2018-06-17T00:29:34.066Z,7.80
2018-06-17T00:32:01.375Z,7.70
2018-06-17T00:34:28.884Z,8.43
2018-06-17T00:36:56.279Z,7.67
2018-06-17T00:39:23.615Z,6.10
2018-06-17T00:41:51.183Z,6.20
2018-06-17T00:44:18.539Z,6.67
2018-06-17T00:46:45.883Z,5.30
2018-06-17T00:49:13.252Z,6.13
2018-06-17T00:51:40.703Z,5.40
2018-06-17T00:54:08.023Z,6.07
2018-06-17T00:56:35.484Z,5.03
2018-06-17T00:59:02.891Z,4.33
2018-06-17T01:01:30.223Z,4.63
2018-06-17T01:03:57.603Z,4.40
2018-06-17T01:06:24.927Z,5.03
2018-06-17T01:08:52.288Z,4.50
2018-06-17T01:11:19.570Z,5.33
2018-06-17T01:13:46.997Z,4.87
2018-06-17T01:16:14.468Z,4.70
2018-06-17T01:18:41.791Z,4.30
2018-06-17T01:21:09.231Z,4.73
2018-06-17T01:23:36.527Z,5.10
2018-06-17T01:26:08.391Z,4.47
2018-06-17T01:28:36.631Z,3.73
2018-06-17T01:31:04.043Z,4.70
2018-06-17T01:33:31.551Z,4.57
2018-06-17T01:35:58.935Z,4.60
2018-06-17T01:38:26.256Z,4.90
2018-06-17T01:40:53.626Z,4.80
2018-06-17T01:43:20.970Z,4.37
2018-06-17T01:45:48.559Z,4.70
2018-06-17T01:48:15.975Z,4.80
2018-06-17T01:50:43.478Z,5.13
2018-06-17T01:53:10.823Z,5.03
2018-06-17T01:55:38.148Z,4.63
2018-06-17T01:58:05.491Z,5.40
2018-06-17T02:00:32.815Z,4.63
2018-06-17T02:03:04.454Z,3.87
2018-06-17T02:05:37.307Z,4.70
2018-06-17T02:08:10.083Z,4.10
2018-06-17T02:10:42.985Z,4.50
2018-06-17T02:13:10.302Z,3.93
2018-06-17T02:15:37.652Z,4.40
2018-06-17T02:18:05.016Z,3.87
2018-06-17T02:20:32.344Z,4.03
2018-06-17T02:22:59.635Z,4.03
2018-06-17T02:25:27.098Z,4.43
2018-06-17T02:27:54.551Z,4.93
2018-06-17T02:30:21.889Z,4.77
2018-06-17T02:32:49.268Z,4.20
2018-06-17T02:35:16.618Z,4.27
2018-06-17T02:37:43.988Z,4.10
2018-06-17T02:40:11.315Z,4.70
2018-06-17T02:42:38.634Z,4.00
2018-06-17T02:45:11.219Z,4.20
2018-06-17T02:48:44.956Z,4.40
2018-06-17T02:52:20.731Z,4.70
2018-06-17T02:54:48.915Z,3.60
2018-06-17T02:57:17.602Z,4.33
2018-06-17T02:59:45.637Z,4.70
2018-06-17T03:02:13.639Z,6.30
2018-06-17T03:04:41.211Z,5.30
2018-06-17T03:07:08.760Z,4.40
2018-06-17T03:09:36.093Z,4.43
2018-06-17T03:12:03.439Z,4.60
2018-06-17T03:14:30.812Z,4.37
2018-06-17T03:16:58.163Z,4.50
2018-06-17T03:19:25.731Z,4.30
2018-06-17T03:21:53.056Z,4.77
2018-06-17T03:24:25.928Z,4.10
2018-06-17T03:26:58.527Z,5.13
2018-06-17T03:29:31.214Z,4.60
2018-06-17T03:32:03.972Z,4.20
2018-06-17T03:34:31.342Z,4.80
2018-06-17T03:36:58.811Z,4.83
2018-06-17T03:39:26.151Z,4.30
2018-06-17T03:41:53.514Z,4.33
2018-06-17T03:44:20.999Z,3.60
2018-06-17T03:46:48.321Z,3.47
2018-06-17T03:49:15.660Z,3.90
2018-06-17T03:51:43.009Z,3.97
2018-06-17T03:54:10.323Z,3.93
2018-06-17T03:56:37.665Z,3.87
2018-06-17T03:59:05.016Z,3.57
2018-06-17T04:01:32.311Z,4.23
2018-06-17T04:03:59.666Z,4.13
2018-06-17T04:06:27.135Z,4.53
2018-06-17T04:08:54.788Z,3.60
2018-06-17T04:11:22.188Z,3.70
2018-06-17T04:13:49.475Z,3.40
2018-06-17T04:18:50.975Z,4.43
2018-06-17T04:21:18.320Z,3.80
2018-06-17T04:23:45.693Z,3.50
2018-06-17T04:26:13.060Z,3.80
2018-06-17T04:28:40.387Z,3.90
2018-06-17T04:31:07.795Z,4.27
2018-06-17T04:33:35.115Z,3.70
2018-06-17T04:36:02.452Z,3.30
2018-06-17T04:38:29.844Z,3.70
2018-06-17T04:40:57.162Z,4.03
2018-06-17T04:43:24.537Z,3.40
2018-06-17T04:45:51.900Z,3.13
2018-06-17T04:48:19.364Z,3.50
2018-06-17T04:50:46.703Z,4.50
2018-06-17T04:53:14.027Z,3.50
2018-06-17T04:55:41.371Z,3.50
2018-06-17T04:58:08.764Z,3.70
2018-06-17T05:00:36.140Z,3.70
2018-06-17T05:03:03.476Z,3.40
2018-06-17T05:05:30.818Z,4.00
2018-06-17T05:07:58.235Z,3.73
2018-06-17T05:10:25.615Z,3.77
2018-06-17T05:12:53.020Z,3.90
2018-06-17T05:15:20.319Z,3.47
2018-06-17T05:17:47.695Z,4.00
2018-06-17T05:20:15.169Z,3.10
2018-06-17T05:22:42.512Z,2.87
2018-06-17T05:25:09.855Z,3.30
2018-06-17T05:27:37.212Z,3.10
2018-06-17T05:30:04.570Z,3.53
2018-06-17T05:32:31.898Z,4.60
2018-06-17T05:34:59.322Z,3.23
2018-06-17T05:37:26.648Z,3.63
2018-06-17T05:39:53.963Z,3.67
2018-06-17T05:42:21.543Z,3.43
2018-06-17T05:44:49.002Z,3.03
2018-06-17T05:47:16.384Z,2.87
2018-06-17T05:49:43.793Z,3.30
2018-06-17T05:52:11.151Z,2.67
2018-06-17T05:54:38.722Z,3.03
2018-06-17T05:57:06.119Z,2.87
2018-06-17T05:59:33.539Z,2.70
2018-06-17T06:02:00.982Z,2.50
2018-06-17T06:04:30.042Z,2.77
2018-06-17T06:06:57.451Z,1.83
2018-06-17T06:09:24.778Z,2.40
2018-06-17T06:11:52.151Z,2.47
2018-06-17T06:14:19.699Z,2.10
2018-06-17T06:16:47.034Z,2.43
2018-06-17T06:19:14.597Z,2.83
2018-06-17T06:21:42.178Z,2.27
2018-06-17T06:24:10.370Z,2.30
2018-06-17T06:29:19.399Z,3.40
2018-06-17T06:31:46.730Z,2.40
2018-06-17T06:34:14.063Z,2.73
2018-06-17T06:36:41.464Z,2.73
2018-06-17T06:39:09.839Z,1.80
2018-06-17T06:41:37.415Z,2.47
2018-06-17T06:44:05.041Z,2.90
2018-06-17T06:46:32.532Z,2.90
2018-06-17T06:48:59.808Z,2.53
2018-06-17T06:51:27.399Z,2.10
2018-06-17T06:53:54.754Z,2.10
2018-06-17T06:56:22.092Z,3.17
2018-06-17T06:58:49.509Z,2.83
2018-06-17T07:02:23.395Z,2.70
2018-06-17T07:04:56.480Z,2.77
2018-06-17T07:07:29.506Z,2.63
2018-06-17T07:10:02.625Z,2.30
2018-06-17T07:12:30.036Z,2.73
2018-06-17T07:14:57.409Z,2.73
2018-06-17T07:17:30.315Z,2.80
2018-06-17T07:19:57.724Z,2.20
2018-06-17T07:22:25.191Z,2.80
2018-06-17T07:24:52.663Z,3.43
2018-06-17T07:27:25.498Z,3.03
2018-06-17T07:29:52.823Z,3.37
2018-06-17T07:32:20.149Z,2.40
2018-06-17T07:34:47.489Z,2.80
2018-06-17T07:37:14.919Z,2.80
2018-06-17T07:39:49.568Z,2.60
2018-06-17T07:42:16.912Z,3.30
2018-06-17T07:44:44.260Z,3.37
2018-06-17T07:47:11.640Z,2.87
2018-06-17T07:49:50.564Z,2.87
2018-06-17T07:52:24.899Z,3.03
2018-06-17T07:54:52.240Z,3.43
2018-06-17T07:57:21.002Z,3.40
2018-06-17T07:59:48.428Z,3.40
2018-06-17T08:02:16.114Z,2.90
2018-06-17T08:04:43.490Z,2.57
2018-06-17T08:07:10.846Z,2.67
2018-06-17T08:09:38.410Z,2.93
2018-06-17T08:12:06.052Z,2.60
2018-06-17T08:14:33.428Z,2.73
2018-06-17T08:17:01.079Z,2.60
2018-06-17T08:19:29.619Z,2.63
2018-06-17T08:21:57.876Z,2.97
2018-06-17T08:24:25.623Z,2.47
2018-06-17T08:26:53.004Z,2.57
2018-06-17T08:29:20.365Z,2.60
2018-06-17T08:31:47.756Z,3.07
2018-06-17T08:34:15.130Z,2.43
2018-06-17T08:36:42.751Z,2.10
2018-06-17T08:39:15.452Z,2.80
2018-06-17T08:41:42.879Z,2.13
2018-06-17T08:44:10.984Z,2.03
2018-06-17T08:46:38.545Z,3.47
2018-06-17T08:49:06.199Z,3.07
2018-06-17T08:51:33.620Z,2.80
2018-06-17T08:54:00.997Z,2.70
2018-06-17T08:56:28.768Z,2.60
2018-06-17T08:58:56.543Z,2.57
2018-06-17T09:01:24.023Z,2.57
2018-06-17T09:03:51.330Z,2.70
2018-06-17T09:06:18.670Z,4.20
2018-06-17T09:08:45.971Z,2.90
2018-06-17T09:11:13.283Z,2.30
2018-06-17T09:13:40.873Z,2.70
2018-06-17T09:16:08.224Z,2.43
2018-06-17T09:18:35.611Z,2.83
2018-06-17T09:21:02.965Z,3.30
2018-06-17T09:23:30.372Z,2.40
2018-06-17T09:25:57.748Z,2.47
2018-06-17T09:28:25.149Z,2.33
2018-06-17T09:30:52.450Z,2.27
2018-06-17T09:33:19.811Z,2.37
2018-06-17T09:35:47.481Z,2.40
2018-06-17T09:38:14.811Z,2.47
2018-06-17T09:40:42.189Z,2.23
2018-06-17T09:43:09.620Z,2.30
2018-06-17T09:45:36.993Z,2.20
2018-06-17T09:48:04.668Z,2.33
2018-06-17T09:50:32.007Z,2.53
2018-06-17T09:52:59.595Z,2.37
2018-06-17T09:55:26.962Z,2.57
2018-06-17T09:57:54.347Z,2.60
2018-06-17T10:00:22.939Z,2.30
2018-06-17T10:02:51.875Z,2.33
2018-06-17T10:05:19.396Z,2.60
2018-06-17T10:07:47.067Z,2.77
2018-06-17T10:10:17.009Z,2.53
2018-06-17T10:12:44.360Z,1.50
2018-06-17T10:15:11.725Z,2.07
2018-06-17T10:17:39.032Z,2.40
2018-06-17T10:20:06.403Z,2.27
2018-06-17T10:22:33.940Z,2.17
2018-06-17T10:25:01.369Z,2.70
2018-06-17T10:27:28.683Z,2.53
2018-06-17T10:29:56.041Z,5.03
2018-06-17T10:32:23.348Z,2.10
2018-06-17T10:34:50.791Z,2.40
2018-06-17T10:37:18.199Z,2.60
2018-06-17T10:39:45.632Z,2.53
2018-06-17T10:42:13.015Z,2.60
2018-06-17T10:44:40.471Z,2.43
2018-06-17T10:47:08.027Z,2.37
2018-06-17T10:49:35.419Z,3.70
2018-06-17T10:52:02.760Z,2.00
2018-06-17T10:54:30.612Z,3.17
2018-06-17T10:56:57.940Z,2.30
2018-06-17T10:59:25.323Z,2.07
2018-06-17T11:01:52.743Z,2.77
2018-06-17T11:04:20.528Z,2.90
2018-06-17T11:06:47.827Z,3.03
2018-06-17T11:09:15.242Z,3.20
2018-06-17T11:11:42.561Z,2.30
2018-06-17T11:14:09.905Z,2.77
2018-06-17T11:16:37.232Z,2.13
2018-06-17T11:19:04.533Z,2.43
2018-06-17T11:21:32.041Z,2.30
2018-06-17T11:23:59.507Z,2.20
2018-06-17T11:26:26.906Z,2.17
2018-06-17T11:28:54.303Z,2.10
2018-06-17T11:31:21.686Z,2.50
2018-06-17T11:33:49.185Z,2.53
2018-06-17T11:36:16.535Z,2.13
2018-06-17T11:38:43.967Z,2.77
2018-06-17T11:41:11.264Z,3.13
2018-06-17T11:43:38.654Z,2.67
2018-06-17T11:46:06.352Z,2.53
2018-06-17T11:48:34.642Z,2.87
2018-06-17T11:51:02.037Z,2.50
2018-06-17T11:53:29.391Z,3.20
2018-06-17T11:55:56.787Z,1.90
2018-06-17T11:58:24.186Z,2.07
2018-06-17T12:00:51.607Z,2.90
2018-06-17T12:03:18.976Z,2.77
2018-06-17T12:05:46.311Z,2.00
2018-06-17T12:08:13.685Z,2.33
2018-06-17T12:10:41.136Z,2.57
2018-06-17T12:13:08.456Z,2.93
2018-06-17T12:15:35.868Z,3.00
2018-06-17T12:18:03.203Z,2.63
2018-06-17T12:20:30.523Z,2.43
2018-06-17T12:22:58.032Z,2.67
2018-06-17T12:25:25.468Z,3.10
2018-06-17T12:27:52.823Z,2.47
2018-06-17T12:30:20.195Z,2.50
2018-06-17T12:32:47.626Z,2.80
2018-06-17T12:35:14.962Z,2.20
2018-06-17T12:37:42.276Z,2.13
2018-06-17T12:40:09.767Z,2.30
2018-06-17T12:42:37.152Z,2.67
2018-06-17T12:45:04.767Z,2.60
2018-06-17T12:47:32.238Z,2.10
2018-06-17T12:49:59.714Z,2.40
2018-06-17T12:52:27.236Z,2.00
2018-06-17T12:54:54.711Z,2.10
2018-06-17T12:57:22.491Z,2.63
2018-06-17T12:59:49.947Z,2.53
2018-06-17T13:02:17.288Z,2.40
2018-06-17T13:04:44.688Z,2.30
2018-06-17T13:07:12.150Z,2.50
2018-06-17T13:09:39.467Z,2.13
2018-06-17T13:12:06.774Z,2.20
2018-06-17T13:14:34.178Z,1.63
2018-06-17T13:17:01.778Z,2.00
2018-06-17T13:19:29.277Z,1.83
2018-06-17T13:21:56.608Z,1.70
2018-06-17T13:24:23.894Z,2.37
2018-06-17T13:26:51.374Z,2.20
2018-06-17T13:29:18.880Z,1.97
2018-06-17T13:31:46.221Z,2.10
2018-06-17T13:34:13.637Z,2.07
2018-06-17T13:36:40.984Z,2.90
2018-06-17T13:39:08.980Z,2.60
2018-06-17T13:41:36.720Z,2.00
2018-06-17T13:44:04.107Z,2.20
2018-06-17T13:46:31.452Z,1.80
2018-06-17T13:48:58.868Z,2.70
2018-06-17T13:51:26.237Z,1.60
2018-06-17T13:53:53.776Z,1.67
2018-06-17T13:56:21.337Z,1.93
2018-06-17T13:58:48.727Z,1.80
2018-06-17T14:01:16.147Z,2.57
2018-06-17T14:03:43.477Z,2.63
2018-06-17T14:06:10.847Z,1.50
2018-06-17T14:08:38.236Z,1.87
2018-06-17T14:11:05.568Z,1.73
2018-06-17T14:13:32.955Z,1.50
2018-06-17T14:16:00.400Z,2.37
2018-06-17T14:18:27.744Z,1.50
2018-06-17T14:20:55.911Z,2.00
2018-06-17T14:23:23.266Z,1.53
2018-06-17T14:25:50.593Z,1.53
2018-06-17T14:28:18.189Z,1.90
2018-06-17T14:30:45.732Z,2.13
2018-06-17T14:33:13.123Z,1.97
2018-06-17T14:35:40.443Z,1.70
2018-06-17T14:38:07.755Z,2.20
2018-06-17T14:41:38.302Z,2.77
2018-06-17T14:44:11.344Z,1.40
2018-06-17T14:46:43.986Z,1.93
2018-06-17T14:49:16.748Z,1.80
2018-06-17T14:51:49.638Z,1.77
2018-06-17T14:54:16.977Z,1.43
2018-06-17T14:56:44.324Z,2.10
2018-06-17T14:59:11.728Z,2.07
2018-06-17T15:01:39.192Z,1.80
2018-06-17T15:04:06.624Z,1.90
2018-06-17T15:06:34.087Z,1.97
2018-06-17T15:09:01.492Z,2.53
2018-06-17T15:11:28.824Z,2.40
2018-06-17T15:13:56.218Z,1.80
2018-06-17T15:16:23.611Z,2.00
2018-06-17T15:18:50.983Z,2.00
2018-06-17T15:21:18.381Z,1.97
2018-06-17T15:23:45.747Z,1.70
2018-06-17T15:26:13.119Z,1.70
2018-06-17T15:28:40.463Z,1.60
2018-06-17T15:31:13.410Z,2.07
2018-06-17T15:33:46.176Z,2.13
2018-06-17T15:36:18.952Z,2.40
2018-06-17T15:38:55.273Z,1.83
2018-06-17T15:41:27.951Z,1.97
2018-06-17T15:43:56.715Z,1.50
2018-06-17T15:46:24.248Z,1.80
2018-06-17T15:48:51.689Z,2.07
2018-06-17T15:51:19.037Z,2.07
2018-06-17T15:53:46.525Z,1.70
2018-06-17T15:56:14.142Z,1.80
2018-06-17T15:58:41.586Z,1.77
2018-06-17T16:01:09.115Z,1.60
2018-06-17T16:03:36.730Z,1.87
2018-06-17T16:06:04.026Z,1.77
2018-06-17T16:08:31.857Z,1.90
2018-06-17T16:10:59.276Z,1.90
2018-06-17T16:13:32.143Z,1.70
2018-06-17T16:16:04.936Z,1.60
2018-06-17T16:18:37.741Z,1.73
2018-06-17T16:21:07.116Z,1.80
2018-06-17T16:23:34.812Z,1.77
2018-06-17T16:26:02.346Z,1.67
2018-06-17T16:28:29.742Z,1.90
2018-06-17T16:30:57.063Z,2.40
2018-06-17T16:33:24.730Z,2.90
2018-06-17T16:35:52.170Z,2.20
2018-06-17T16:38:19.484Z,2.17
2018-06-17T16:40:46.960Z,2.70
2018-06-17T16:43:14.524Z,1.70
2018-06-17T16:45:42.221Z,2.10
2018-06-17T16:48:10.477Z,2.10
2018-06-17T16:50:37.791Z,1.90
2018-06-17T16:54:13.392Z,2.00
2018-06-17T16:56:46.298Z,1.90
2018-06-17T16:59:19.112Z,2.47
2018-06-17T17:01:46.556Z,2.10
2018-06-17T17:04:13.972Z,2.00
2018-06-17T17:06:41.403Z,1.80
2018-06-17T17:09:09.485Z,2.30
2018-06-17T17:11:37.524Z,1.73
2018-06-17T17:14:04.854Z,2.33
2018-06-17T17:16:32.345Z,1.87
2018-06-17T17:18:59.688Z,2.30
2018-06-17T17:21:27.051Z,2.60
2018-06-17T17:23:54.430Z,2.00
2018-06-17T17:26:21.803Z,2.90
2018-06-17T17:28:49.150Z,2.60
2018-06-17T17:31:16.476Z,2.50
2018-06-17T17:33:49.133Z,2.70
2018-06-17T17:36:21.876Z,1.80
2018-06-17T17:38:54.507Z,2.37
2018-06-17T17:41:21.861Z,2.33
2018-06-17T17:43:49.191Z,2.63
2018-06-17T17:46:22.044Z,2.70
2018-06-17T17:48:49.398Z,2.20
2018-06-17T17:51:16.849Z,1.83
2018-06-17T17:53:44.206Z,2.30
2018-06-17T17:56:11.637Z,2.67
2018-06-17T17:58:39.499Z,2.43
2018-06-17T18:01:06.972Z,2.40
2018-06-17T18:03:34.446Z,2.10
2018-06-17T18:06:01.864Z,2.40
2018-06-17T18:08:29.258Z,2.30
2018-06-17T18:10:57.007Z,2.03
2018-06-17T18:13:24.457Z,2.47
2018-06-17T18:15:51.786Z,2.20
2018-06-17T18:18:19.327Z,2.40
2018-06-17T18:20:46.685Z,2.70
2018-06-17T18:23:14.091Z,3.37
2018-06-17T18:25:46.871Z,2.47
2018-06-17T18:28:19.616Z,2.30
2018-06-17T18:30:52.642Z,2.30
2018-06-17T18:33:25.231Z,2.60
2018-06-17T18:38:47.818Z,2.70
2018-06-17T18:41:16.000Z,2.40
2018-06-17T18:43:43.410Z,2.40
2018-06-17T18:46:11.790Z,2.10
2018-06-17T18:48:39.251Z,2.10
2018-06-17T18:51:06.910Z,3.17
2018-06-17T18:53:34.294Z,2.87
2018-06-17T18:56:01.851Z,3.60
2018-06-17T18:58:29.371Z,4.00
2018-06-17T19:01:05.666Z,3.80
2018-06-17T19:03:37.633Z,4.37
2018-06-17T19:08:51.553Z,4.97
2018-06-17T19:11:24.514Z,7.47
2018-06-17T19:14:01.377Z,7.47
2018-06-17T19:16:39.094Z,5.90
2018-06-17T19:19:06.772Z,4.23
2018-06-17T19:21:34.230Z,4.83
2018-06-17T19:24:01.735Z,4.10
2018-06-17T19:26:29.150Z,3.50
2018-06-17T19:28:56.629Z,4.10
2018-06-17T19:31:24.058Z,3.60
2018-06-17T19:33:51.461Z,2.50
2018-06-17T19:36:19.085Z,4.23
2018-06-17T19:38:46.540Z,3.93
2018-06-17T19:41:14.008Z,4.10
2018-06-17T19:43:41.632Z,4.30
2018-06-17T19:46:09.099Z,3.97
2018-06-17T19:48:36.433Z,5.83
2018-06-17T19:51:27.829Z,4.00
2018-06-17T19:55:01.119Z,4.30
2018-06-17T19:57:33.907Z,4.30
2018-06-17T20:04:36.158Z,3.83
2018-06-17T20:07:12.267Z,3.90
2018-06-17T20:12:29.107Z,4.17
2018-06-17T20:14:56.655Z,4.43
2018-06-17T20:20:13.218Z,3.87
2018-06-17T20:22:40.684Z,5.60
2018-06-17T20:25:08.177Z,4.30
2018-06-17T20:27:35.725Z,4.63
2018-06-17T20:30:03.277Z,4.17
2018-06-17T20:32:36.049Z,5.60
2018-06-17T20:36:06.940Z,3.93
2018-06-17T20:38:39.580Z,4.17
2018-06-17T20:41:12.327Z,3.83
2018-06-17T20:43:54.253Z,4.30
2018-06-17T20:46:27.636Z,4.00
2018-06-17T20:49:01.815Z,3.60
2018-06-17T20:51:29.809Z,5.73
2018-06-17T20:53:59.452Z,3.53
2018-06-17T20:56:30.751Z,4.20
2018-06-17T20:59:02.297Z,4.43
2018-06-17T21:01:34.728Z,4.67
2018-06-17T21:04:08.264Z,4.03
2018-06-17T21:10:02.190Z,4.00
2018-06-17T21:12:36.139Z,3.90
2018-06-17T21:15:16.643Z,4.17
2018-06-17T21:20:50.211Z,4.40
2018-06-17T21:23:23.084Z,4.43
2018-06-17T21:25:55.818Z,3.57
2018-06-17T21:28:23.143Z,4.10
2018-06-17T21:30:50.675Z,4.40
2018-06-17T21:33:18.238Z,3.80
2018-06-17T21:35:45.580Z,4.90
2018-06-17T21:38:12.919Z,3.60
2018-06-17T21:40:40.235Z,3.80
2018-06-17T21:43:07.563Z,3.67
2018-06-17T21:45:34.863Z,4.03
2018-06-17T21:48:02.180Z,4.90
2018-06-17T21:50:29.579Z,5.33
2018-06-17T21:52:56.895Z,3.77
2018-06-17T21:55:24.287Z,4.60
2018-06-17T21:57:51.634Z,4.70
2018-06-17T22:00:18.975Z,3.90
2018-06-17T22:02:46.295Z,3.50
2018-06-17T22:05:14.114Z,5.10
2018-06-17T22:07:46.903Z,4.00
2018-06-17T22:10:19.601Z,3.90
2018-06-17T22:12:52.293Z,4.07
2018-06-17T22:15:25.080Z,4.27
2018-06-17T22:17:53.487Z,5.03
2018-06-17T22:20:21.148Z,4.47
2018-06-17T22:22:48.519Z,4.20
2018-06-17T22:25:16.086Z,5.20
2018-06-17T22:27:43.493Z,3.90
2018-06-17T22:30:10.878Z,5.27
2018-06-17T22:32:38.208Z,4.47
2018-06-17T22:35:05.587Z,3.47
2018-06-17T22:37:32.922Z,3.40
2018-06-17T22:40:00.356Z,3.50
2018-06-17T22:42:27.676Z,3.37
2018-06-17T22:44:55.039Z,5.00
2018-06-17T22:47:27.999Z,3.73
2018-06-17T22:49:55.320Z,3.60
2018-06-17T22:52:22.695Z,4.47
2018-06-17T22:54:51.701Z,4.83
2018-06-17T22:57:24.465Z,4.37
2018-06-17T22:59:57.224Z,3.40
2018-06-17T23:02:29.982Z,3.87
2018-06-17T23:05:02.700Z,4.20
2018-06-17T23:07:35.248Z,3.57
2018-06-17T23:10:02.687Z,3.40
2018-06-17T23:12:30.029Z,3.87
2018-06-17T23:14:57.375Z,3.23
2018-06-17T23:17:24.711Z,3.80
2018-06-17T23:19:52.152Z,3.77
2018-06-17T23:22:19.465Z,3.47
2018-06-17T23:24:46.799Z,3.07
2018-06-17T23:27:14.139Z,3.43
2018-06-17T23:29:41.466Z,3.70
2018-06-17T23:32:08.791Z,3.27
2018-06-17T23:34:36.116Z,3.53
2018-06-17T23:37:03.561Z,3.67
2018-06-17T23:39:30.906Z,3.60
2018-06-17T23:41:58.219Z,3.13
2018-06-17T23:44:25.591Z,3.17
2018-06-17T23:46:58.401Z,3.20
2018-06-17T23:49:31.259Z,2.40
2018-06-17T23:52:04.066Z,3.20
2018-06-17T23:54:36.937Z,2.97
2018-06-17T23:57:04.301Z,3.17
2018-06-17T23:59:31.637Z,2.50
